TimeMST,TemperatureF,Dew PointF,Humidity,Sea Level PressureIn,VisibilityMPH,Wind Direction,Wind SpeedMPH,Gust SpeedMPH,PrecipitationIn,Events,Conditions,WindDirDegrees,DateUTC
12:56 AM,17.1,15.1,92,30.11,-9999.0,SE,21.9,27.6,N/A,,Unknown,130,2013-02-21 07:56:00
1:56 AM,17.1,15.1,92,30.11,-9999.0,SE,18.4,24.2,N/A,,Unknown,130,2013-02-21 08:56:00
2:56 AM,17.1,15.1,92,30.10,-9999.0,SE,17.3,26.5,N/A,,Unknown,130,2013-02-21 09:56:00
3:56 AM,16.0,14.0,92,30.11,-9999.0,SE,19.6,-,N/A,,Unknown,130,2013-02-21 10:56:00
4:56 AM,16.0,14.0,92,30.12,-9999.0,SE,18.4,-,N/A,,Unknown,130,2013-02-21 11:56:00
5:56 AM,16.0,14.0,92,30.13,-9999.0,SE,17.3,-,N/A,,Unknown,140,2013-02-21 12:56:00
6:56 AM,16.0,14.0,92,30.15,-9999.0,SE,15.0,-,0.01,,Unknown,140,2013-02-21 13:56:00
7:56 AM,17.1,14.0,88,30.15,-9999.0,SE,16.1,-,N/A,,Unknown,140,2013-02-21 14:56:00
8:56 AM,18.0,15.1,88,30.17,-9999.0,SE,16.1,-,0.01,,Unknown,140,2013-02-21 15:56:00
9:56 AM,18.0,15.1,88,30.17,-9999.0,SE,13.8,-,0.01,,Unknown,130,2013-02-21 16:56:00
10:56 AM,19.0,15.1,85,30.18,-9999.0,SE,12.7,-,0.01,,Unknown,140,2013-02-21 17:56:00
11:56 AM,19.0,15.1,85,30.16,-9999.0,SE,11.5,-,0.03,,Unknown,130,2013-02-21 18:56:00
12:56 PM,19.0,15.1,85,30.14,-9999.0,ESE,9.2,-,0.01,,Unknown,120,2013-02-21 19:56:00
1:56 PM,19.9,16.0,85,30.13,-9999.0,ESE,13.8,-,0.01,,Unknown,120,2013-02-21 20:56:00
2:56 PM,19.9,15.1,81,30.12,-9999.0,ESE,9.2,-,0.01,,Unknown,120,2013-02-21 21:56:00
3:56 PM,19.9,15.1,81,30.12,-9999.0,ESE,8.1,-,N/A,,Unknown,120,2013-02-21 22:56:00
4:56 PM,19.9,16.0,85,30.12,-9999.0,ESE,6.9,-,N/A,,Unknown,120,2013-02-21 23:56:00
5:56 PM,19.0,17.1,92,30.14,-9999.0,SE,10.4,-,N/A,,Unknown,130,2013-02-22 00:56:00
6:56 PM,17.1,15.1,92,30.15,-9999.0,SE,9.2,-,0.01,,Unknown,130,2013-02-22 01:56:00
7:56 PM,17.1,15.1,92,30.14,-9999.0,SE,8.1,-,N/A,,Unknown,130,2013-02-22 02:56:00
8:56 PM,15.1,12.0,88,30.14,-9999.0,SE,5.8,-,N/A,,Unknown,130,2013-02-22 03:56:00
9:56 PM,14.0,12.0,92,30.14,-9999.0,SE,5.8,-,N/A,,Unknown,130,2013-02-22 04:56:00
10:56 PM,14.0,12.0,92,30.13,-9999.0,ESE,5.8,-,N/A,,Unknown,120,2013-02-22 05:56:00
11:56 PM,12.9,10.9,92,30.13,-9999.0,Calm,Calm,-,N/A,,Unknown,0,2013-02-22 06:56:00